createdAt,value
2018-04-27T00:01:28.711Z,6.21
2018-04-27T00:03:56.996Z,6.19
2018-04-27T00:06:25.251Z,6.09
2018-04-27T00:08:53.525Z,5.85
2018-04-27T00:11:21.780Z,5.80
2018-04-27T00:13:50.807Z,5.82
2018-04-27T00:16:19.073Z,5.77
2018-04-27T00:18:47.327Z,5.75
2018-04-27T00:21:16.357Z,5.63
2018-04-27T00:23:44.619Z,5.63
2018-04-27T00:26:12.875Z,5.63
2018-04-27T00:28:41.887Z,5.61
2018-04-27T00:31:10.159Z,5.62
2018-04-27T00:33:38.402Z,5.71
2018-04-27T00:36:06.674Z,5.65
2018-04-27T00:38:34.939Z,5.73
2018-04-27T00:41:03.195Z,5.76
2018-04-27T00:43:31.459Z,5.74
2018-04-27T00:46:01.384Z,5.70
2018-04-27T00:48:29.636Z,5.73
2018-04-27T00:50:57.883Z,5.67
2018-04-27T00:53:26.933Z,5.58
2018-04-27T00:55:55.194Z,5.45
2018-04-27T00:58:23.443Z,5.41
2018-04-27T01:00:52.476Z,5.47
2018-04-27T01:03:20.739Z,5.48
2018-04-27T01:05:48.986Z,5.43
2018-04-27T01:08:18.022Z,5.35
2018-04-27T01:10:46.279Z,5.33
2018-04-27T01:13:14.548Z,5.27
2018-04-27T01:15:42.820Z,5.31
2018-04-27T01:18:11.075Z,5.25
2018-04-27T01:20:40.094Z,5.17
2018-04-27T01:23:08.381Z,5.09
2018-04-27T01:25:36.648Z,4.94
2018-04-27T01:28:04.974Z,4.94
2018-04-27T01:30:33.244Z,4.59
2018-04-27T01:33:01.494Z,4.77
2018-04-27T01:35:29.763Z,4.79
2018-04-27T01:37:58.041Z,4.88
2018-04-27T01:40:26.320Z,4.86
2018-04-27T01:42:54.572Z,4.98
2018-04-27T01:45:23.611Z,5.09
2018-04-27T01:47:51.889Z,5.17
2018-04-27T01:50:20.183Z,5.15
2018-04-27T01:52:48.464Z,5.17
2018-04-27T01:55:16.723Z,5.07
2018-04-27T01:57:44.999Z,5.00
2018-04-27T02:00:13.274Z,4.92
2018-04-27T02:02:41.526Z,4.88
2018-04-27T02:05:09.792Z,4.79
2018-04-27T02:07:38.055Z,4.68
2018-04-27T02:10:06.363Z,4.54
2018-04-27T02:12:34.615Z,4.60
2018-04-27T02:15:02.867Z,4.69
2018-04-27T02:17:31.942Z,4.70
2018-04-27T02:20:00.203Z,4.69
2018-04-27T02:22:28.471Z,4.62
2018-04-27T02:24:56.734Z,4.51
2018-04-27T02:27:24.999Z,4.40
2018-04-27T02:29:53.273Z,4.40
2018-04-27T02:32:21.549Z,4.47
2018-04-27T02:34:49.800Z,4.60
2018-04-27T02:37:18.878Z,4.68
2018-04-27T02:39:47.153Z,4.79
2018-04-27T02:42:15.414Z,4.80
2018-04-27T02:44:43.688Z,4.71
2018-04-27T02:47:11.960Z,4.67
2018-04-27T02:49:40.215Z,4.68
2018-04-27T02:52:08.503Z,4.59
2018-04-27T02:54:36.788Z,4.70
2018-04-27T02:57:05.039Z,4.68
2018-04-27T02:59:33.315Z,4.76
2018-04-27T03:02:01.595Z,4.78
2018-04-27T03:04:29.873Z,4.59
2018-04-27T03:06:58.142Z,4.69
2018-04-27T03:09:26.417Z,4.77
2018-04-27T03:11:54.688Z,4.77
2018-04-27T03:14:22.955Z,4.63
2018-04-27T03:16:51.204Z,3.97
2018-04-27T03:19:20.239Z,3.87
2018-04-27T03:21:48.499Z,3.31
2018-04-27T03:24:16.776Z,3.38
2018-04-27T03:26:45.052Z,3.71
2018-04-27T03:29:13.301Z,3.95
2018-04-27T03:31:42.344Z,3.94
2018-04-27T03:34:10.628Z,3.39
2018-04-27T03:36:38.907Z,3.77
2018-04-27T03:39:07.183Z,4.00
2018-04-27T03:41:35.445Z,4.14
2018-04-27T03:44:03.705Z,4.19
2018-04-27T03:46:31.959Z,4.27
2018-04-27T03:49:01.027Z,4.46
2018-04-27T03:51:29.275Z,4.58
2018-04-27T03:53:57.542Z,4.68
2018-04-27T03:56:25.811Z,4.77
2018-04-27T03:58:54.075Z,4.74
2018-04-27T04:01:40.072Z,4.76
2018-04-27T04:04:26.322Z,4.53
2018-04-27T04:06:54.595Z,4.51
2018-04-27T04:09:22.851Z,4.56
2018-04-27T04:11:51.107Z,4.43
2018-04-27T04:14:19.382Z,4.55
2018-04-27T04:16:47.639Z,4.52
2018-04-27T04:19:15.910Z,4.63
2018-04-27T04:21:44.936Z,4.66
2018-04-27T04:24:13.186Z,4.68
2018-04-27T04:26:41.462Z,4.76
2018-04-27T04:29:09.717Z,4.77
2018-04-27T04:31:38.740Z,4.82
2018-04-27T04:34:07.039Z,4.96
2018-04-27T04:36:35.327Z,4.99
2018-04-27T04:39:03.579Z,5.07
2018-04-27T04:41:31.852Z,5.16
2018-04-27T04:44:00.118Z,5.16
2018-04-27T04:46:28.382Z,5.20
2018-04-27T04:48:57.416Z,5.24
2018-04-27T04:51:25.664Z,5.39
2018-04-27T04:53:53.915Z,5.52
2018-04-27T04:56:22.947Z,5.53
2018-04-27T04:58:51.220Z,5.55
2018-04-27T05:01:19.510Z,5.57
2018-04-27T05:03:47.754Z,5.54
2018-04-27T05:06:16.039Z,5.43
2018-04-27T05:08:44.290Z,5.04
2018-04-27T05:11:13.316Z,5.29
2018-04-27T05:13:41.606Z,5.47
2018-04-27T05:16:09.868Z,5.62
2018-04-27T05:21:38.670Z,5.88
2018-04-27T05:24:06.952Z,6.00
2018-04-27T05:26:35.218Z,6.04
2018-04-27T05:29:03.570Z,6.19
2018-04-27T05:31:32.611Z,6.21
2018-04-27T05:34:00.881Z,6.27
2018-04-27T05:36:29.161Z,6.33
2018-04-27T05:38:57.425Z,6.36
2018-04-27T05:41:25.697Z,6.44
2018-04-27T05:43:53.966Z,6.48
2018-04-27T05:46:22.984Z,6.58
2018-04-27T05:48:51.222Z,6.71
2018-04-27T05:51:20.259Z,6.80
2018-04-27T05:53:48.517Z,6.87
2018-04-27T05:56:16.825Z,6.91
2018-04-27T05:58:45.080Z,6.75
2018-04-27T06:01:13.340Z,6.93
2018-04-27T06:03:59.299Z,6.98
2018-04-27T06:06:27.585Z,7.23
2018-04-27T06:08:56.596Z,7.41
2018-04-27T06:11:24.846Z,7.54
2018-04-27T06:13:53.119Z,7.67
2018-04-27T06:16:21.379Z,7.79
2018-04-27T06:18:49.633Z,7.85
2018-04-27T06:21:17.891Z,7.99
2018-04-27T06:23:46.154Z,8.13
2018-04-27T06:26:14.402Z,8.29
2018-04-27T06:28:49.894Z,8.43
2018-04-27T06:31:18.163Z,8.61
2018-04-27T06:33:46.418Z,8.65
2018-04-27T06:36:14.703Z,8.86
2018-04-27T06:38:42.993Z,9.04
2018-04-27T06:41:11.240Z,9.20
2018-04-27T06:43:40.334Z,9.32
2018-04-27T06:46:10.194Z,9.56
2018-04-27T06:48:38.453Z,9.76
2018-04-27T06:51:06.718Z,9.96
2018-04-27T06:53:34.977Z,9.75
2018-04-27T06:56:03.992Z,9.92
2018-04-27T06:58:32.286Z,9.91
2018-04-27T07:01:00.534Z,10.05
2018-04-27T07:03:28.815Z,9.56
2018-04-27T07:05:57.066Z,9.85
2018-04-27T07:08:26.091Z,10.12
2018-04-27T07:10:54.361Z,10.36
2018-04-27T07:13:22.648Z,10.61
2018-04-27T07:15:50.923Z,10.68
2018-04-27T07:18:19.202Z,10.63
2018-04-27T07:20:47.476Z,10.48
2018-04-27T07:23:15.744Z,10.43
2018-04-27T07:25:43.998Z,10.60
2018-04-27T07:28:13.047Z,10.84
2018-04-27T07:30:41.324Z,10.88
2018-04-27T07:33:09.679Z,11.00
2018-04-27T07:35:37.932Z,10.92
2018-04-27T07:38:06.250Z,11.09
2018-04-27T07:40:34.519Z,11.18
2018-04-27T07:43:02.820Z,11.10
2018-04-27T07:45:31.080Z,11.29
2018-04-27T07:47:59.340Z,11.30
2018-04-27T07:50:27.612Z,11.60
2018-04-27T07:52:55.874Z,11.75
2018-04-27T07:55:24.182Z,12.21
2018-04-27T07:57:53.184Z,12.44
2018-04-27T08:00:21.440Z,12.74
2018-04-27T08:02:49.704Z,12.80
2018-04-27T08:05:17.978Z,12.83
2018-04-27T08:07:46.247Z,12.84
2018-04-27T08:10:14.507Z,12.87
2018-04-27T08:12:43.559Z,12.77
2018-04-27T08:15:11.830Z,13.23
2018-04-27T08:17:40.083Z,13.36
2018-04-27T08:20:08.360Z,13.32
2018-04-27T08:22:38.491Z,13.40
2018-04-27T08:25:06.756Z,13.74
2018-04-27T08:27:35.037Z,13.96
2018-04-27T08:30:03.304Z,14.37
2018-04-27T08:32:31.559Z,14.36
2018-04-27T08:35:00.603Z,14.40
2018-04-27T08:37:28.862Z,14.62
2018-04-27T08:39:57.143Z,14.76
2018-04-27T08:42:25.408Z,14.74
2018-04-27T08:44:53.679Z,15.28
2018-04-27T08:47:21.967Z,15.35
2018-04-27T08:49:50.229Z,15.06
2018-04-27T08:52:18.515Z,15.06
2018-04-27T08:54:46.790Z,15.07
2018-04-27T08:57:15.064Z,14.97
2018-04-27T08:59:43.351Z,14.99
2018-04-27T09:02:11.680Z,14.99
2018-04-27T09:04:39.901Z,15.20
2018-04-27T09:07:08.168Z,15.38
2018-04-27T09:09:36.426Z,15.73
2018-04-27T09:12:05.468Z,15.96
2018-04-27T09:14:33.737Z,16.21
2018-04-27T09:17:02.006Z,16.40
2018-04-27T09:19:30.284Z,16.28
2018-04-27T09:21:58.562Z,16.50
2018-04-27T09:24:26.848Z,16.54
2018-04-27T09:26:55.129Z,16.59
2018-04-27T09:29:23.419Z,16.80
2018-04-27T09:31:51.703Z,16.93
2018-04-27T09:34:19.959Z,17.30
2018-04-27T09:36:48.274Z,17.30
2018-04-27T09:39:17.303Z,17.46
2018-04-27T09:41:45.568Z,17.71
2018-04-27T09:44:13.862Z,17.95
2018-04-27T09:46:42.129Z,17.82
2018-04-27T09:49:10.398Z,17.63
2018-04-27T09:51:38.701Z,17.60
2018-04-27T09:54:06.955Z,17.16
2018-04-27T09:56:35.240Z,17.47
2018-04-27T09:59:03.491Z,17.55
2018-04-27T10:01:31.780Z,17.03
2018-04-27T10:04:00.043Z,16.55
2018-04-27T10:06:28.316Z,16.17
2018-04-27T10:08:57.359Z,16.21
2018-04-27T10:11:25.638Z,16.22
2018-04-27T10:13:53.925Z,16.42
2018-04-27T10:16:22.249Z,16.72
2018-04-27T10:18:50.502Z,17.10
2018-04-27T10:21:18.955Z,17.45
2018-04-27T10:23:47.213Z,17.49
2018-04-27T10:26:21.554Z,17.85
2018-04-27T10:28:49.824Z,18.34
2018-04-27T10:31:19.917Z,18.50
2018-04-27T10:33:48.230Z,18.66
2018-04-27T10:36:16.487Z,17.98
2018-04-27T10:38:44.760Z,17.52
2018-04-27T10:41:13.023Z,17.35
2018-04-27T10:43:41.295Z,17.51
2018-04-27T10:46:09.562Z,18.09
2018-04-27T10:48:37.848Z,18.57
2018-04-27T10:51:06.123Z,18.87
2018-04-27T10:53:34.403Z,19.20
2018-04-27T10:56:02.692Z,19.48
2018-04-27T10:58:30.955Z,19.18
2018-04-27T11:00:59.231Z,19.21
2018-04-27T11:03:27.561Z,19.57
2018-04-27T11:05:55.765Z,19.64
2018-04-27T11:08:24.040Z,19.67
2018-04-27T11:10:52.321Z,19.86
2018-04-27T11:13:20.588Z,20.17
2018-04-27T11:15:48.868Z,20.12
2018-04-27T11:18:17.130Z,20.33
2018-04-27T11:20:46.169Z,20.44
2018-04-27T11:23:14.427Z,20.43
2018-04-27T11:25:42.704Z,20.11
2018-04-27T11:28:10.971Z,20.41
2018-04-27T11:30:39.400Z,20.23
2018-04-27T11:33:07.673Z,20.05
2018-04-27T11:35:35.936Z,20.16
2018-04-27T11:38:04.211Z,20.21
2018-04-27T11:40:32.472Z,20.30
2018-04-27T11:43:00.755Z,19.83
2018-04-27T11:45:29.008Z,20.15
2018-04-27T11:47:57.292Z,20.41
2018-04-27T11:50:25.543Z,20.32
2018-04-27T11:52:54.571Z,20.37
2018-04-27T11:55:22.851Z,20.38
2018-04-27T11:57:51.112Z,20.31
2018-04-27T12:00:22.246Z,20.26
2018-04-27T12:02:50.502Z,20.31
2018-04-27T12:05:19.537Z,20.65
2018-04-27T12:07:47.811Z,20.61
2018-04-27T12:10:16.083Z,19.85
2018-04-27T12:12:44.350Z,19.87
2018-04-27T12:15:12.632Z,20.03
2018-04-27T12:17:40.974Z,19.84
2018-04-27T12:20:09.171Z,19.89
2018-04-27T12:22:37.453Z,20.01
2018-04-27T12:25:05.710Z,20.07
2018-04-27T12:27:34.739Z,20.35
2018-04-27T12:30:03.024Z,20.82
2018-04-27T12:32:31.293Z,21.04
2018-04-27T12:34:59.543Z,21.46
2018-04-27T12:37:27.829Z,21.75
2018-04-27T12:39:56.087Z,21.88
2018-04-27T12:42:25.114Z,21.31
2018-04-27T12:44:53.406Z,21.30
2018-04-27T12:47:21.666Z,21.76
2018-04-27T12:49:49.966Z,22.12
2018-04-27T12:52:18.283Z,22.42
2018-04-27T12:54:46.539Z,22.66
2018-04-27T12:57:14.880Z,22.60
2018-04-27T12:59:43.154Z,22.77
2018-04-27T13:02:11.426Z,22.83
2018-04-27T13:04:39.696Z,22.86
2018-04-27T13:07:07.994Z,23.01
2018-04-27T13:09:36.278Z,23.13
2018-04-27T13:12:04.544Z,22.78
2018-04-27T13:14:32.815Z,22.94
2018-04-27T13:17:01.089Z,22.56
2018-04-27T13:19:29.350Z,23.02
2018-04-27T13:21:57.638Z,23.17
2018-04-27T13:24:25.890Z,23.74
2018-04-27T13:26:54.154Z,23.36
2018-04-27T13:29:23.274Z,23.77
2018-04-27T13:31:51.535Z,23.60
2018-04-27T13:34:19.802Z,24.14
2018-04-27T13:36:49.001Z,24.97
2018-04-27T13:39:18.024Z,25.54
2018-04-27T13:41:46.322Z,25.90
2018-04-27T13:44:14.571Z,25.89
2018-04-27T13:46:42.843Z,26.00
2018-04-27T13:49:11.126Z,26.12
2018-04-27T13:51:39.398Z,25.71
2018-04-27T13:54:07.678Z,25.53
2018-04-27T13:56:35.960Z,25.63
2018-04-27T13:59:04.244Z,26.51
2018-04-27T14:01:32.527Z,26.30
2018-04-27T14:04:00.878Z,26.04
2018-04-27T14:06:29.163Z,25.45
2018-04-27T14:08:57.435Z,25.66
2018-04-27T14:11:25.818Z,26.09
2018-04-27T14:13:54.180Z,27.01
2018-04-27T14:16:22.469Z,27.53
2018-04-27T14:18:50.749Z,28.11
2018-04-27T14:21:19.021Z,27.45
2018-04-27T14:23:47.295Z,27.77
2018-04-27T14:26:15.616Z,26.91
2018-04-27T14:28:43.880Z,27.18
2018-04-27T14:31:12.227Z,26.70
2018-04-27T14:33:40.539Z,27.33
2018-04-27T14:36:08.771Z,28.23
2018-04-27T14:38:37.052Z,28.92
2018-04-27T14:41:05.381Z,29.00
2018-04-27T14:43:33.618Z,29.43
2018-04-27T14:46:01.894Z,29.41
2018-04-27T14:48:30.269Z,29.73
2018-04-27T14:50:58.523Z,29.75
2018-04-27T14:53:26.837Z,30.14
2018-04-27T14:55:55.091Z,30.57
2018-04-27T14:58:23.364Z,30.82
2018-04-27T15:00:51.638Z,31.05
2018-04-27T15:03:19.898Z,31.09
2018-04-27T15:05:48.919Z,30.79
2018-04-27T15:08:17.227Z,31.05
2018-04-27T15:10:45.566Z,31.04
2018-04-27T15:13:13.879Z,31.13
2018-04-27T15:15:42.239Z,30.39
2018-04-27T15:18:10.536Z,30.01
2018-04-27T15:20:38.794Z,29.79
2018-04-27T15:23:07.078Z,30.43
2018-04-27T15:25:35.373Z,31.01
2018-04-27T15:28:03.626Z,31.40
2018-04-27T15:30:31.924Z,31.02
2018-04-27T15:33:00.264Z,31.11
2018-04-27T15:35:28.538Z,31.30
2018-04-27T15:37:56.831Z,30.69
2018-04-27T15:40:25.118Z,31.26
2018-04-27T15:42:53.468Z,31.00
2018-04-27T15:45:21.847Z,29.54
2018-04-27T15:47:50.106Z,29.76
2018-04-27T15:50:18.371Z,29.23
2018-04-27T15:52:47.498Z,28.90
2018-04-27T15:55:15.758Z,29.16
2018-04-27T15:57:44.019Z,28.55
2018-04-27T16:00:13.055Z,29.36
2018-04-27T16:02:41.322Z,29.48
2018-04-27T16:05:09.579Z,30.48
2018-04-27T16:07:37.854Z,30.83
2018-04-27T16:10:06.138Z,31.60
2018-04-27T16:12:34.393Z,32.33
2018-04-27T16:15:03.516Z,32.25
2018-04-27T16:17:31.792Z,32.12
2018-04-27T16:20:00.055Z,31.95
2018-04-27T16:22:28.311Z,31.89
2018-04-27T16:24:57.352Z,31.54
2018-04-27T16:27:25.603Z,31.93
2018-04-27T16:29:53.858Z,30.76
2018-04-27T16:32:22.900Z,28.82
2018-04-27T16:34:51.216Z,27.91
2018-04-27T16:37:19.538Z,28.82
2018-04-27T16:39:47.816Z,29.09
2018-04-27T16:42:16.091Z,28.84
2018-04-27T16:44:44.355Z,29.14
2018-04-27T16:47:12.618Z,28.88
2018-04-27T16:49:41.739Z,29.41
2018-04-27T16:52:10.018Z,29.05
2018-04-27T16:54:38.298Z,28.58
2018-04-27T16:57:06.567Z,28.19
2018-04-27T16:59:34.826Z,27.75
2018-04-27T17:02:03.091Z,28.43
2018-04-27T17:04:32.138Z,28.45
2018-04-27T17:07:00.490Z,29.65
2018-04-27T17:09:28.767Z,28.55
2018-04-27T17:11:57.052Z,27.33
2018-04-27T17:14:25.302Z,25.92
2018-04-27T17:16:53.576Z,24.38
2018-04-27T17:19:22.661Z,23.06
2018-04-27T17:21:50.868Z,22.68
2018-04-27T17:24:19.122Z,22.33
2018-04-27T17:26:48.224Z,21.77
2018-04-27T17:29:16.493Z,21.33
2018-04-27T17:31:45.515Z,20.85
2018-04-27T17:34:13.788Z,20.78
2018-04-27T17:36:42.140Z,20.63
2018-04-27T17:39:10.310Z,20.50
2018-04-27T17:41:39.365Z,21.31
2018-04-27T17:44:07.706Z,22.32
2018-04-27T17:46:35.987Z,22.55
2018-04-27T17:49:04.283Z,22.80
2018-04-27T17:51:32.546Z,22.88
2018-04-27T17:54:00.820Z,22.50
2018-04-27T17:56:29.099Z,21.98
2018-04-27T17:58:57.355Z,21.51
2018-04-27T18:01:25.641Z,21.16
2018-04-27T18:03:53.932Z,20.23
2018-04-27T18:06:22.201Z,19.76
2018-04-27T18:08:50.482Z,19.81
2018-04-27T18:11:18.755Z,19.80
2018-04-27T18:13:47.028Z,19.60
2018-04-27T18:16:15.287Z,19.35
2018-04-27T18:18:43.566Z,19.26
2018-04-27T18:21:11.831Z,19.17
2018-04-27T18:23:40.891Z,19.03
2018-04-27T18:26:09.163Z,18.96
2018-04-27T18:28:37.460Z,18.86
2018-04-27T18:31:06.508Z,18.73
2018-04-27T18:33:34.783Z,18.55
2018-04-27T18:36:03.051Z,18.33
2018-04-27T18:38:31.529Z,18.11
2018-04-27T18:40:59.867Z,17.89
2018-04-27T18:43:29.190Z,17.66
2018-04-27T18:45:57.726Z,17.42
2018-04-27T18:48:27.068Z,17.17
2018-04-27T18:50:55.532Z,17.02
2018-04-27T18:53:25.998Z,16.75
2018-04-27T18:55:55.096Z,16.30
2018-04-27T18:58:23.395Z,16.27
2018-04-27T19:00:55.288Z,16.23
2018-04-27T19:03:24.389Z,16.16
2018-04-27T19:05:53.373Z,15.93
2018-04-27T19:08:21.989Z,15.54
2018-04-27T19:10:51.231Z,15.54
2018-04-27T19:13:20.505Z,15.45
2018-04-27T19:15:49.777Z,15.36
2018-04-27T19:18:21.718Z,15.19
2018-04-27T19:20:51.366Z,15.05
2018-04-27T19:23:23.552Z,14.91
2018-04-27T19:26:02.802Z,14.74
2018-04-27T19:28:34.133Z,14.56
2018-04-27T19:31:05.222Z,14.40
2018-04-27T19:33:34.713Z,14.35
2018-04-27T19:36:04.196Z,14.31
2018-04-27T19:38:33.777Z,14.28
2018-04-27T19:41:03.928Z,14.26
2018-04-27T19:43:33.539Z,14.23
2018-04-27T19:46:03.118Z,14.16
2018-04-27T19:48:32.592Z,14.07
2018-04-27T19:51:02.045Z,13.83
2018-04-27T19:53:31.464Z,13.70
2018-04-27T19:56:01.036Z,13.66
2018-04-27T19:58:31.408Z,13.60
2018-04-27T20:01:01.075Z,13.50
2018-04-27T20:03:30.549Z,13.41
2018-04-27T20:06:00.070Z,13.26
2018-04-27T20:08:40.176Z,13.22
2018-04-27T20:11:09.762Z,13.17
2018-04-27T20:13:44.192Z,13.02
2018-04-27T20:16:13.918Z,12.81
2018-04-27T20:18:45.037Z,12.62
2018-04-27T20:21:14.529Z,12.04
2018-04-27T20:23:44.753Z,11.98
2018-04-27T20:26:14.271Z,12.02
2018-04-27T20:28:44.549Z,12.07
2018-04-27T20:31:14.729Z,12.03
2018-04-27T20:33:45.228Z,11.98
2018-04-27T20:36:15.169Z,11.13
2018-04-27T20:38:45.558Z,11.24
2018-04-27T20:41:15.707Z,11.48
2018-04-27T20:43:45.104Z,11.43
2018-04-27T20:46:14.276Z,11.60
2018-04-27T20:48:45.102Z,11.67
2018-04-27T20:51:14.061Z,11.63
2018-04-27T20:53:43.145Z,11.60
2018-04-27T20:56:11.647Z,11.66
2018-04-27T20:58:40.294Z,11.70
2018-04-27T21:01:08.629Z,11.67
2018-04-27T21:03:37.391Z,11.37
2018-04-27T21:06:05.706Z,11.39
2018-04-27T21:08:33.995Z,11.24
2018-04-27T21:11:02.287Z,11.14
2018-04-27T21:13:30.601Z,11.19
2018-04-27T21:15:58.812Z,11.17
2018-04-27T21:18:27.207Z,11.22
2018-04-27T21:20:55.466Z,11.31
2018-04-27T21:23:23.850Z,11.45
2018-04-27T21:25:52.831Z,11.47
2018-04-27T21:28:25.630Z,11.46
2018-04-27T21:30:55.739Z,11.48
2018-04-27T21:33:40.540Z,11.47
2018-04-27T21:36:11.455Z,11.45
2018-04-27T21:38:52.216Z,11.46
2018-04-27T21:41:29.787Z,11.45
2018-04-27T21:44:12.217Z,11.59
2018-04-27T21:46:40.501Z,11.65
2018-04-27T21:49:18.392Z,11.66
2018-04-27T21:51:54.223Z,11.79
2018-04-27T21:54:23.254Z,11.79
2018-04-27T22:00:23.378Z,11.85
2018-04-27T22:03:16.673Z,11.80
2018-04-27T22:06:01.540Z,11.85
2018-04-27T22:08:46.616Z,11.82
2018-04-27T22:14:39.678Z,11.74
2018-04-27T22:17:13.343Z,11.72
2018-04-27T22:19:41.620Z,11.52
2018-04-27T22:22:09.883Z,11.66
2018-04-27T22:27:51.525Z,11.61
2018-04-27T22:30:21.880Z,11.62
2018-04-27T22:32:50.150Z,11.56
2018-04-27T22:35:22.591Z,11.52
2018-04-27T22:37:52.216Z,11.44
2018-04-27T22:40:35.945Z,11.31
2018-04-27T22:43:24.804Z,11.19
2018-04-27T22:46:01.002Z,11.16
2018-04-27T22:51:40.710Z,11.02
2018-04-27T22:57:25.561Z,10.71
2018-04-27T23:02:56.267Z,10.51
2018-04-27T23:05:34.447Z,10.42
2018-04-27T23:08:05.235Z,10.48
2018-04-27T23:10:44.922Z,10.32
2018-04-27T23:13:35.524Z,10.31
2018-04-27T23:16:05.337Z,10.24
2018-04-27T23:18:42.860Z,10.21
2018-04-27T23:21:17.336Z,10.17
2018-04-27T23:23:45.625Z,10.18
2018-04-27T23:26:14.653Z,10.04
2018-04-27T23:28:42.935Z,9.89
2018-04-27T23:31:11.206Z,9.89
2018-04-27T23:33:39.483Z,9.82
2018-04-27T23:36:07.737Z,9.64
2018-04-27T23:38:36.035Z,9.44
2018-04-27T23:41:04.287Z,9.34
2018-04-27T23:43:33.332Z,9.39
2018-04-27T23:46:01.592Z,9.32
2018-04-27T23:48:29.868Z,9.33
2018-04-27T23:51:01.002Z,9.12
2018-04-27T23:53:35.153Z,9.11
2018-04-27T23:56:03.428Z,9.04
2018-04-27T23:58:32.596Z,9.13
